sensor_id;sensor_type;location;lat;lon;timestamp;P1;durP1;ratioP1;P2;durP2;ratioP2
12535;SDS011;6334;48.696;2.114;2023-11-19T00:02:30;1.73;;;1.40;;
12535;SDS011;6334;48.696;2.114;2023-11-19T00:05:00;3.70;;;1.57;;
12535;SDS011;6334;48.696;2.114;2023-11-19T00:07:31;1.67;;;1.30;;
12535;SDS011;6334;48.696;2.114;2023-11-19T00:10:01;1.00;;;1.00;;
12535;SDS011;6334;48.696;2.114;2023-11-19T00:12:32;1.87;;;1.50;;
12535;SDS011;6334;48.696;2.114;2023-11-19T00:15:02;1.80;;;1.50;;
12535;SDS011;6334;48.696;2.114;2023-11-19T00:17:32;1.00;;;1.00;;
12535;SDS011;6334;48.696;2.114;2023-11-19T00:20:03;2.80;;;1.80;;
12535;SDS011;6334;48.696;2.114;2023-11-19T00:22:34;2.17;;;1.60;;
12535;SDS011;6334;48.696;2.114;2023-11-19T00:25:05;1.80;;;1.63;;
12535;SDS011;6334;48.696;2.114;2023-11-19T00:27:36;2.67;;;1.83;;
12535;SDS011;6334;48.696;2.114;2023-11-19T00:30:06;1.63;;;1.30;;
12535;SDS011;6334;48.696;2.114;2023-11-19T00:32:36;1.40;;;1.30;;
12535;SDS011;6334;48.696;2.114;2023-11-19T00:35:06;1.47;;;1.37;;
12535;SDS011;6334;48.696;2.114;2023-11-19T00:37:35;5.60;;;1.40;;
12535;SDS011;6334;48.696;2.114;2023-11-19T00:40:05;3.53;;;1.20;;
12535;SDS011;6334;48.696;2.114;2023-11-19T00:42:36;4.53;;;2.00;;
12535;SDS011;6334;48.696;2.114;2023-11-19T00:45:06;2.07;;;1.60;;
12535;SDS011;6334;48.696;2.114;2023-11-19T00:47:37;2.23;;;1.30;;
12535;SDS011;6334;48.696;2.114;2023-11-19T00:50:07;0.90;;;0.90;;
12535;SDS011;6334;48.696;2.114;2023-11-19T00:52:38;2.43;;;1.47;;
12535;SDS011;6334;48.696;2.114;2023-11-19T00:55:08;1.50;;;1.07;;
12535;SDS011;6334;48.696;2.114;2023-11-19T00:57:38;2.30;;;1.13;;
12535;SDS011;6334;48.696;2.114;2023-11-19T01:00:08;2.77;;;1.30;;
12535;SDS011;6334;48.696;2.114;2023-11-19T01:02:41;1.43;;;1.17;;
12535;SDS011;6334;48.696;2.114;2023-11-19T01:05:12;1.53;;;1.30;;
12535;SDS011;6334;48.696;2.114;2023-11-19T01:07:41;7.97;;;1.53;;
12535;SDS011;6334;48.696;2.114;2023-11-19T01:10:12;1.73;;;1.63;;
12535;SDS011;6334;48.696;2.114;2023-11-19T01:12:45;2.50;;;1.60;;
12535;SDS011;6334;48.696;2.114;2023-11-19T01:15:15;1.53;;;1.43;;
12535;SDS011;6334;48.696;2.114;2023-11-19T01:17:48;2.77;;;1.30;;
12535;SDS011;6334;48.696;2.114;2023-11-19T01:20:18;1.40;;;1.13;;
12535;SDS011;6334;48.696;2.114;2023-11-19T01:22:49;3.73;;;1.50;;
12535;SDS011;6334;48.696;2.114;2023-11-19T01:25:18;2.83;;;2.10;;
12535;SDS011;6334;48.696;2.114;2023-11-19T01:27:49;2.90;;;1.60;;
12535;SDS011;6334;48.696;2.114;2023-11-19T01:30:19;2.10;;;1.57;;
12535;SDS011;6334;48.696;2.114;2023-11-19T01:32:50;2.10;;;1.17;;
12535;SDS011;6334;48.696;2.114;2023-11-19T01:35:20;5.17;;;1.77;;
12535;SDS011;6334;48.696;2.114;2023-11-19T01:37:50;3.63;;;1.60;;
12535;SDS011;6334;48.696;2.114;2023-11-19T01:40:20;2.73;;;1.30;;
12535;SDS011;6334;48.696;2.114;2023-11-19T01:42:50;1.80;;;1.63;;
12535;SDS011;6334;48.696;2.114;2023-11-19T01:45:27;2.20;;;1.60;;
12535;SDS011;6334;48.696;2.114;2023-11-19T01:47:59;3.37;;;1.37;;
12535;SDS011;6334;48.696;2.114;2023-11-19T01:50:32;2.90;;;1.50;;
12535;SDS011;6334;48.696;2.114;2023-11-19T01:53:02;3.17;;;1.77;;
12535;SDS011;6334;48.696;2.114;2023-11-19T01:55:33;3.53;;;1.77;;
12535;SDS011;6334;48.696;2.114;2023-11-19T01:58:03;3.00;;;1.40;;
12535;SDS011;6334;48.696;2.114;2023-11-19T02:00:34;4.97;;;2.20;;
12535;SDS011;6334;48.696;2.114;2023-11-19T02:03:05;4.17;;;1.43;;
12535;SDS011;6334;48.696;2.114;2023-11-19T02:05:38;3.43;;;1.60;;
12535;SDS011;6334;48.696;2.114;2023-11-19T02:08:07;3.77;;;1.50;;
12535;SDS011;6334;48.696;2.114;2023-11-19T02:10:38;5.30;;;1.93;;
12535;SDS011;6334;48.696;2.114;2023-11-19T02:13:09;1.57;;;1.23;;
12535;SDS011;6334;48.696;2.114;2023-11-19T02:15:40;3.63;;;1.83;;
12535;SDS011;6334;48.696;2.114;2023-11-19T02:18:19;6.87;;;1.63;;
12535;SDS011;6334;48.696;2.114;2023-11-19T02:20:51;3.00;;;1.70;;
12535;SDS011;6334;48.696;2.114;2023-11-19T02:23:21;4.30;;;1.33;;
12535;SDS011;6334;48.696;2.114;2023-11-19T02:26:02;4.70;;;1.70;;
12535;SDS011;6334;48.696;2.114;2023-11-19T02:28:30;3.57;;;1.60;;
12535;SDS011;6334;48.696;2.114;2023-11-19T02:31:00;4.70;;;2.00;;
12535;SDS011;6334;48.696;2.114;2023-11-19T02:33:33;3.80;;;1.50;;
12535;SDS011;6334;48.696;2.114;2023-11-19T02:36:07;5.17;;;1.87;;
12535;SDS011;6334;48.696;2.114;2023-11-19T02:38:34;3.83;;;1.73;;
12535;SDS011;6334;48.696;2.114;2023-11-19T02:41:06;2.40;;;1.07;;
12535;SDS011;6334;48.696;2.114;2023-11-19T02:43:36;3.07;;;1.67;;
12535;SDS011;6334;48.696;2.114;2023-11-19T02:46:05;4.30;;;1.50;;
12535;SDS011;6334;48.696;2.114;2023-11-19T02:48:35;3.40;;;1.50;;
12535;SDS011;6334;48.696;2.114;2023-11-19T02:51:06;3.57;;;1.70;;
12535;SDS011;6334;48.696;2.114;2023-11-19T02:53:35;2.23;;;1.50;;
12535;SDS011;6334;48.696;2.114;2023-11-19T02:56:05;7.33;;;1.70;;
12535;SDS011;6334;48.696;2.114;2023-11-19T02:58:46;3.40;;;1.53;;
12535;SDS011;6334;48.696;2.114;2023-11-19T03:01:21;2.13;;;1.57;;
12535;SDS011;6334;48.696;2.114;2023-11-19T03:03:51;3.57;;;1.67;;
12535;SDS011;6334;48.696;2.114;2023-11-19T03:06:22;5.67;;;1.73;;
12535;SDS011;6334;48.696;2.114;2023-11-19T03:08:51;4.73;;;2.07;;
12535;SDS011;6334;48.696;2.114;2023-11-19T03:11:21;5.87;;;1.40;;
12535;SDS011;6334;48.696;2.114;2023-11-19T03:13:51;1.80;;;1.60;;
12535;SDS011;6334;48.696;2.114;2023-11-19T03:16:22;7.63;;;1.97;;
12535;SDS011;6334;48.696;2.114;2023-11-19T03:18:52;7.07;;;1.77;;
12535;SDS011;6334;48.696;2.114;2023-11-19T03:21:29;2.73;;;0.93;;
12535;SDS011;6334;48.696;2.114;2023-11-19T03:23:59;4.00;;;1.60;;
12535;SDS011;6334;48.696;2.114;2023-11-19T03:26:30;2.83;;;1.43;;
12535;SDS011;6334;48.696;2.114;2023-11-19T03:29:00;3.73;;;1.73;;
12535;SDS011;6334;48.696;2.114;2023-11-19T03:31:31;4.43;;;2.03;;
12535;SDS011;6334;48.696;2.114;2023-11-19T03:34:01;1.40;;;1.30;;
12535;SDS011;6334;48.696;2.114;2023-11-19T03:36:33;2.67;;;1.77;;
12535;SDS011;6334;48.696;2.114;2023-11-19T03:39:04;4.87;;;1.70;;
12535;SDS011;6334;48.696;2.114;2023-11-19T03:41:34;5.37;;;1.77;;
12535;SDS011;6334;48.696;2.114;2023-11-19T03:44:04;6.37;;;2.07;;
12535;SDS011;6334;48.696;2.114;2023-11-19T03:46:35;3.93;;;1.80;;
12535;SDS011;6334;48.696;2.114;2023-11-19T03:49:06;4.37;;;1.83;;
12535;SDS011;6334;48.696;2.114;2023-11-19T03:51:36;3.43;;;1.63;;
12535;SDS011;6334;48.696;2.114;2023-11-19T03:54:07;3.17;;;2.00;;
12535;SDS011;6334;48.696;2.114;2023-11-19T03:56:37;3.53;;;1.50;;
12535;SDS011;6334;48.696;2.114;2023-11-19T03:59:07;3.10;;;1.50;;
12535;SDS011;6334;48.696;2.114;2023-11-19T04:01:37;7.90;;;2.37;;
12535;SDS011;6334;48.696;2.114;2023-11-19T04:04:08;9.50;;;2.13;;
12535;SDS011;6334;48.696;2.114;2023-11-19T04:06:39;4.57;;;1.60;;
12535;SDS011;6334;48.696;2.114;2023-11-19T04:09:10;4.10;;;1.60;;
12535;SDS011;6334;48.696;2.114;2023-11-19T04:11:39;4.30;;;1.50;;
12535;SDS011;6334;48.696;2.114;2023-11-19T04:14:10;4.40;;;2.00;;
12535;SDS011;6334;48.696;2.114;2023-11-19T04:16:40;4.47;;;1.70;;
12535;SDS011;6334;48.696;2.114;2023-11-19T04:19:11;4.47;;;1.30;;
12535;SDS011;6334;48.696;2.114;2023-11-19T04:21:40;1.87;;;1.10;;
12535;SDS011;6334;48.696;2.114;2023-11-19T04:24:11;2.80;;;1.60;;
12535;SDS011;6334;48.696;2.114;2023-11-19T04:26:41;4.87;;;1.70;;
12535;SDS011;6334;48.696;2.114;2023-11-19T04:29:12;6.70;;;2.00;;
12535;SDS011;6334;48.696;2.114;2023-11-19T04:31:43;3.40;;;1.57;;
12535;SDS011;6334;48.696;2.114;2023-11-19T04:34:12;3.43;;;1.83;;
12535;SDS011;6334;48.696;2.114;2023-11-19T04:36:41;5.57;;;1.97;;
12535;SDS011;6334;48.696;2.114;2023-11-19T04:39:12;5.37;;;1.70;;
12535;SDS011;6334;48.696;2.114;2023-11-19T04:41:48;4.63;;;1.87;;
12535;SDS011;6334;48.696;2.114;2023-11-19T04:44:16;4.30;;;2.03;;
12535;SDS011;6334;48.696;2.114;2023-11-19T04:46:46;5.70;;;1.87;;
12535;SDS011;6334;48.696;2.114;2023-11-19T04:49:16;5.87;;;2.10;;
12535;SDS011;6334;48.696;2.114;2023-11-19T04:51:46;4.43;;;1.43;;
12535;SDS011;6334;48.696;2.114;2023-11-19T04:54:16;3.93;;;1.73;;
12535;SDS011;6334;48.696;2.114;2023-11-19T04:56:46;4.07;;;1.60;;
12535;SDS011;6334;48.696;2.114;2023-11-19T04:59:17;4.60;;;2.00;;
12535;SDS011;6334;48.696;2.114;2023-11-19T05:01:47;1.50;;;1.20;;
12535;SDS011;6334;48.696;2.114;2023-11-19T05:04:17;9.73;;;2.50;;
12535;SDS011;6334;48.696;2.114;2023-11-19T05:06:47;5.77;;;2.20;;
12535;SDS011;6334;48.696;2.114;2023-11-19T05:09:18;4.47;;;2.40;;
12535;SDS011;6334;48.696;2.114;2023-11-19T05:11:48;5.60;;;2.23;;
12535;SDS011;6334;48.696;2.114;2023-11-19T05:14:19;3.90;;;1.87;;
12535;SDS011;6334;48.696;2.114;2023-11-19T05:16:49;6.13;;;1.90;;
12535;SDS011;6334;48.696;2.114;2023-11-19T05:19:19;5.97;;;2.03;;
12535;SDS011;6334;48.696;2.114;2023-11-19T05:21:50;4.73;;;1.60;;
12535;SDS011;6334;48.696;2.114;2023-11-19T05:24:20;5.17;;;2.00;;
12535;SDS011;6334;48.696;2.114;2023-11-19T05:26:51;5.13;;;2.00;;
12535;SDS011;6334;48.696;2.114;2023-11-19T05:29:21;6.53;;;2.27;;
12535;SDS011;6334;48.696;2.114;2023-11-19T05:31:52;4.27;;;1.60;;
12535;SDS011;6334;48.696;2.114;2023-11-19T05:34:22;5.63;;;2.17;;
12535;SDS011;6334;48.696;2.114;2023-11-19T05:36:54;7.30;;;2.30;;
12535;SDS011;6334;48.696;2.114;2023-11-19T05:39:24;5.17;;;2.37;;
12535;SDS011;6334;48.696;2.114;2023-11-19T05:41:55;5.50;;;2.17;;
12535;SDS011;6334;48.696;2.114;2023-11-19T05:44:26;5.40;;;2.07;;
12535;SDS011;6334;48.696;2.114;2023-11-19T05:46:55;5.87;;;2.43;;
12535;SDS011;6334;48.696;2.114;2023-11-19T05:49:25;6.47;;;2.27;;
12535;SDS011;6334;48.696;2.114;2023-11-19T05:51:56;9.03;;;2.37;;
12535;SDS011;6334;48.696;2.114;2023-11-19T05:54:27;5.17;;;1.90;;
12535;SDS011;6334;48.696;2.114;2023-11-19T05:56:57;4.07;;;1.77;;
12535;SDS011;6334;48.696;2.114;2023-11-19T05:59:28;5.00;;;2.33;;
12535;SDS011;6334;48.696;2.114;2023-11-19T06:01:57;7.20;;;2.10;;
12535;SDS011;6334;48.696;2.114;2023-11-19T06:04:27;5.73;;;2.10;;
12535;SDS011;6334;48.696;2.114;2023-11-19T06:06:57;5.27;;;2.03;;
12535;SDS011;6334;48.696;2.114;2023-11-19T06:09:26;7.67;;;2.37;;
12535;SDS011;6334;48.696;2.114;2023-11-19T06:11:57;5.23;;;1.83;;
12535;SDS011;6334;48.696;2.114;2023-11-19T06:14:28;4.83;;;1.80;;
12535;SDS011;6334;48.696;2.114;2023-11-19T06:16:59;3.67;;;1.60;;
12535;SDS011;6334;48.696;2.114;2023-11-19T06:19:29;6.87;;;2.17;;
12535;SDS011;6334;48.696;2.114;2023-11-19T06:22:00;7.03;;;2.13;;
12535;SDS011;6334;48.696;2.114;2023-11-19T06:24:30;5.77;;;2.53;;
12535;SDS011;6334;48.696;2.114;2023-11-19T06:27:01;5.57;;;2.20;;
12535;SDS011;6334;48.696;2.114;2023-11-19T06:29:31;5.30;;;2.40;;
12535;SDS011;6334;48.696;2.114;2023-11-19T06:32:02;7.03;;;2.20;;
12535;SDS011;6334;48.696;2.114;2023-11-19T06:34:31;6.33;;;2.47;;
12535;SDS011;6334;48.696;2.114;2023-11-19T06:37:03;6.60;;;2.87;;
12535;SDS011;6334;48.696;2.114;2023-11-19T06:39:33;5.43;;;2.93;;
12535;SDS011;6334;48.696;2.114;2023-11-19T06:42:04;6.57;;;2.50;;
12535;SDS011;6334;48.696;2.114;2023-11-19T06:44:34;8.50;;;2.47;;
12535;SDS011;6334;48.696;2.114;2023-11-19T06:47:04;8.43;;;2.53;;
12535;SDS011;6334;48.696;2.114;2023-11-19T06:49:35;5.47;;;1.87;;
12535;SDS011;6334;48.696;2.114;2023-11-19T06:52:04;6.63;;;2.57;;
12535;SDS011;6334;48.696;2.114;2023-11-19T06:54:35;5.57;;;2.37;;
12535;SDS011;6334;48.696;2.114;2023-11-19T06:57:04;6.40;;;2.70;;
12535;SDS011;6334;48.696;2.114;2023-11-19T06:59:35;5.40;;;2.47;;
12535;SDS011;6334;48.696;2.114;2023-11-19T07:02:06;6.90;;;2.17;;
12535;SDS011;6334;48.696;2.114;2023-11-19T07:04:35;5.63;;;2.20;;
12535;SDS011;6334;48.696;2.114;2023-11-19T07:07:04;6.10;;;2.67;;
12535;SDS011;6334;48.696;2.114;2023-11-19T07:09:35;8.33;;;2.47;;
12535;SDS011;6334;48.696;2.114;2023-11-19T07:12:05;8.07;;;2.63;;
12535;SDS011;6334;48.696;2.114;2023-11-19T07:14:36;6.07;;;2.50;;
12535;SDS011;6334;48.696;2.114;2023-11-19T07:17:06;8.23;;;2.70;;
12535;SDS011;6334;48.696;2.114;2023-11-19T07:19:37;6.40;;;2.23;;
12535;SDS011;6334;48.696;2.114;2023-11-19T07:22:06;8.43;;;2.50;;
12535;SDS011;6334;48.696;2.114;2023-11-19T07:24:38;9.57;;;2.90;;
12535;SDS011;6334;48.696;2.114;2023-11-19T07:27:07;6.03;;;2.30;;
12535;SDS011;6334;48.696;2.114;2023-11-19T07:29:38;5.70;;;2.23;;
12535;SDS011;6334;48.696;2.114;2023-11-19T07:32:08;5.17;;;2.43;;
12535;SDS011;6334;48.696;2.114;2023-11-19T07:34:38;7.50;;;2.70;;
12535;SDS011;6334;48.696;2.114;2023-11-19T07:37:08;5.27;;;2.57;;
12535;SDS011;6334;48.696;2.114;2023-11-19T07:39:39;10.27;;;3.00;;
12535;SDS011;6334;48.696;2.114;2023-11-19T07:42:09;5.17;;;2.40;;
12535;SDS011;6334;48.696;2.114;2023-11-19T07:44:40;5.20;;;2.20;;
12535;SDS011;6334;48.696;2.114;2023-11-19T07:47:10;7.07;;;2.27;;
12535;SDS011;6334;48.696;2.114;2023-11-19T07:49:40;6.30;;;2.43;;
12535;SDS011;6334;48.696;2.114;2023-11-19T07:52:09;6.13;;;2.10;;
12535;SDS011;6334;48.696;2.114;2023-11-19T07:54:40;6.07;;;2.47;;
12535;SDS011;6334;48.696;2.114;2023-11-19T07:57:10;4.03;;;2.07;;
12535;SDS011;6334;48.696;2.114;2023-11-19T07:59:41;8.90;;;2.57;;
12535;SDS011;6334;48.696;2.114;2023-11-19T08:02:11;11.67;;;3.17;;
12535;SDS011;6334;48.696;2.114;2023-11-19T08:04:41;7.03;;;2.27;;
12535;SDS011;6334;48.696;2.114;2023-11-19T08:07:10;6.20;;;2.33;;
12535;SDS011;6334;48.696;2.114;2023-11-19T08:09:41;7.50;;;2.77;;
12535;SDS011;6334;48.696;2.114;2023-11-19T08:12:11;10.60;;;2.90;;
12535;SDS011;6334;48.696;2.114;2023-11-19T08:14:41;10.93;;;2.50;;
12535;SDS011;6334;48.696;2.114;2023-11-19T08:17:11;8.53;;;3.10;;
12535;SDS011;6334;48.696;2.114;2023-11-19T08:19:41;9.47;;;3.13;;
12535;SDS011;6334;48.696;2.114;2023-11-19T08:22:10;9.27;;;2.87;;
12535;SDS011;6334;48.696;2.114;2023-11-19T08:24:40;5.33;;;2.77;;
12535;SDS011;6334;48.696;2.114;2023-11-19T08:27:10;10.00;;;3.13;;
12535;SDS011;6334;48.696;2.114;2023-11-19T08:29:40;9.03;;;2.57;;
12535;SDS011;6334;48.696;2.114;2023-11-19T08:32:11;7.17;;;2.83;;
12535;SDS011;6334;48.696;2.114;2023-11-19T08:34:41;10.20;;;3.50;;
12535;SDS011;6334;48.696;2.114;2023-11-19T08:37:12;7.93;;;3.03;;
12535;SDS011;6334;48.696;2.114;2023-11-19T08:39:42;9.83;;;3.33;;
12535;SDS011;6334;48.696;2.114;2023-11-19T08:42:12;8.57;;;3.40;;
12535;SDS011;6334;48.696;2.114;2023-11-19T08:44:50;12.04;;;2.69;;
12535;SDS011;6334;48.696;2.114;2023-11-19T08:47:19;12.40;;;3.57;;
12535;SDS011;6334;48.696;2.114;2023-11-19T08:49:52;9.65;;;3.28;;
12535;SDS011;6334;48.696;2.114;2023-11-19T08:52:22;9.92;;;3.12;;
12535;SDS011;6334;48.696;2.114;2023-11-19T08:54:53;13.68;;;3.30;;
12535;SDS011;6334;48.696;2.114;2023-11-19T08:57:24;10.77;;;3.70;;
12535;SDS011;6334;48.696;2.114;2023-11-19T08:59:55;10.73;;;3.90;;
12535;SDS011;6334;48.696;2.114;2023-11-19T09:02:25;11.77;;;3.55;;
12535;SDS011;6334;48.696;2.114;2023-11-19T09:04:54;11.75;;;3.55;;
12535;SDS011;6334;48.696;2.114;2023-11-19T09:07:28;12.06;;;3.60;;
12535;SDS011;6334;48.696;2.114;2023-11-19T09:09:57;10.50;;;3.40;;
12535;SDS011;6334;48.696;2.114;2023-11-19T09:12:28;10.73;;;3.20;;
12535;SDS011;6334;48.696;2.114;2023-11-19T09:14:58;15.53;;;3.60;;
12535;SDS011;6334;48.696;2.114;2023-11-19T09:17:29;9.98;;;3.50;;
12535;SDS011;6334;48.696;2.114;2023-11-19T09:20:02;13.63;;;3.87;;
12535;SDS011;6334;48.696;2.114;2023-11-19T09:22:33;12.07;;;3.90;;
12535;SDS011;6334;48.696;2.114;2023-11-19T09:25:05;10.97;;;3.57;;
12535;SDS011;6334;48.696;2.114;2023-11-19T09:27:36;9.67;;;3.73;;
12535;SDS011;6334;48.696;2.114;2023-11-19T09:30:06;11.65;;;4.12;;
12535;SDS011;6334;48.696;2.114;2023-11-19T09:32:36;12.17;;;4.33;;
12535;SDS011;6334;48.696;2.114;2023-11-19T09:35:10;15.43;;;4.57;;
12535;SDS011;6334;48.696;2.114;2023-11-19T09:37:41;11.90;;;3.63;;
12535;SDS011;6334;48.696;2.114;2023-11-19T09:40:11;10.45;;;3.60;;
12535;SDS011;6334;48.696;2.114;2023-11-19T09:42:47;9.90;;;3.80;;
12535;SDS011;6334;48.696;2.114;2023-11-19T09:45:17;13.30;;;4.03;;
12535;SDS011;6334;48.696;2.114;2023-11-19T09:47:47;12.90;;;4.07;;
12535;SDS011;6334;48.696;2.114;2023-11-19T09:50:17;16.30;;;4.80;;
12535;SDS011;6334;48.696;2.114;2023-11-19T09:52:47;10.07;;;3.87;;
12535;SDS011;6334;48.696;2.114;2023-11-19T09:55:18;11.33;;;4.00;;
12535;SDS011;6334;48.696;2.114;2023-11-19T09:57:48;12.40;;;4.10;;
12535;SDS011;6334;48.696;2.114;2023-11-19T10:00:19;11.97;;;4.00;;
12535;SDS011;6334;48.696;2.114;2023-11-19T10:02:49;13.40;;;4.10;;
12535;SDS011;6334;48.696;2.114;2023-11-19T10:05:20;18.33;;;4.13;;
12535;SDS011;6334;48.696;2.114;2023-11-19T10:07:51;11.93;;;4.10;;
12535;SDS011;6334;48.696;2.114;2023-11-19T10:10:22;14.30;;;4.30;;
12535;SDS011;6334;48.696;2.114;2023-11-19T10:12:52;15.23;;;3.70;;
12535;SDS011;6334;48.696;2.114;2023-11-19T10:15:23;16.30;;;4.00;;
12535;SDS011;6334;48.696;2.114;2023-11-19T10:17:56;13.80;;;4.27;;
12535;SDS011;6334;48.696;2.114;2023-11-19T10:20:26;11.37;;;4.10;;
12535;SDS011;6334;48.696;2.114;2023-11-19T10:22:57;17.17;;;4.83;;
12535;SDS011;6334;48.696;2.114;2023-11-19T10:25:28;14.10;;;3.67;;
12535;SDS011;6334;48.696;2.114;2023-11-19T10:27:57;10.07;;;3.70;;
12535;SDS011;6334;48.696;2.114;2023-11-19T10:30:28;13.53;;;3.73;;
12535;SDS011;6334;48.696;2.114;2023-11-19T10:35:35;9.03;;;3.60;;
12535;SDS011;6334;48.696;2.114;2023-11-19T10:38:14;13.23;;;3.87;;
12535;SDS011;6334;48.696;2.114;2023-11-19T10:40:45;12.87;;;3.97;;
12535;SDS011;6334;48.696;2.114;2023-11-19T10:43:15;12.50;;;3.70;;
12535;SDS011;6334;48.696;2.114;2023-11-19T10:45:46;8.90;;;3.27;;
12535;SDS011;6334;48.696;2.114;2023-11-19T10:48:16;10.43;;;3.60;;
12535;SDS011;6334;48.696;2.114;2023-11-19T10:50:49;13.00;;;4.27;;
12535;SDS011;6334;48.696;2.114;2023-11-19T10:53:17;11.87;;;3.93;;
12535;SDS011;6334;48.696;2.114;2023-11-19T10:55:48;12.90;;;3.70;;
12535;SDS011;6334;48.696;2.114;2023-11-19T10:58:18;15.33;;;4.73;;
12535;SDS011;6334;48.696;2.114;2023-11-19T11:00:52;11.47;;;4.03;;
12535;SDS011;6334;48.696;2.114;2023-11-19T11:03:21;13.80;;;4.00;;
12535;SDS011;6334;48.696;2.114;2023-11-19T11:05:52;12.70;;;4.40;;
12535;SDS011;6334;48.696;2.114;2023-11-19T11:08:22;15.00;;;4.83;;
12535;SDS011;6334;48.696;2.114;2023-11-19T11:10:52;14.53;;;3.53;;
12535;SDS011;6334;48.696;2.114;2023-11-19T11:13:22;8.33;;;3.33;;
12535;SDS011;6334;48.696;2.114;2023-11-19T11:15:51;10.37;;;3.83;;
12535;SDS011;6334;48.696;2.114;2023-11-19T11:18:22;11.73;;;3.83;;
12535;SDS011;6334;48.696;2.114;2023-11-19T11:21:02;16.90;;;4.27;;
12535;SDS011;6334;48.696;2.114;2023-11-19T11:23:37;13.23;;;4.27;;
12535;SDS011;6334;48.696;2.114;2023-11-19T11:28:49;10.90;;;3.37;;
12535;SDS011;6334;48.696;2.114;2023-11-19T11:31:31;11.70;;;4.30;;
12535;SDS011;6334;48.696;2.114;2023-11-19T11:34:24;14.37;;;4.13;;
12535;SDS011;6334;48.696;2.114;2023-11-19T11:39:39;9.87;;;3.13;;
12535;SDS011;6334;48.696;2.114;2023-11-19T11:45:07;14.90;;;4.57;;
12535;SDS011;6334;48.696;2.114;2023-11-19T11:50:13;12.77;;;3.80;;
12535;SDS011;6334;48.696;2.114;2023-11-19T11:55:27;13.07;;;3.87;;
12535;SDS011;6334;48.696;2.114;2023-11-19T11:57:59;12.07;;;3.50;;
12535;SDS011;6334;48.696;2.114;2023-11-19T12:03:01;14.73;;;4.60;;
12535;SDS011;6334;48.696;2.114;2023-11-19T12:05:31;14.57;;;4.60;;
12535;SDS011;6334;48.696;2.114;2023-11-19T12:08:01;14.63;;;3.90;;
12535;SDS011;6334;48.696;2.114;2023-11-19T12:10:31;12.27;;;4.10;;
12535;SDS011;6334;48.696;2.114;2023-11-19T12:13:01;10.37;;;3.17;;
12535;SDS011;6334;48.696;2.114;2023-11-19T12:15:32;10.30;;;3.80;;
12535;SDS011;6334;48.696;2.114;2023-11-19T12:18:02;14.03;;;3.63;;
12535;SDS011;6334;48.696;2.114;2023-11-19T12:20:32;14.63;;;3.73;;
12535;SDS011;6334;48.696;2.114;2023-11-19T12:23:02;10.07;;;3.43;;
12535;SDS011;6334;48.696;2.114;2023-11-19T12:25:32;9.57;;;3.73;;
12535;SDS011;6334;48.696;2.114;2023-11-19T12:28:02;11.07;;;3.27;;
12535;SDS011;6334;48.696;2.114;2023-11-19T12:30:34;12.13;;;4.09;;
12535;SDS011;6334;48.696;2.114;2023-11-19T12:33:07;10.77;;;3.10;;
12535;SDS011;6334;48.696;2.114;2023-11-19T12:35:45;14.10;;;4.10;;
12535;SDS011;6334;48.696;2.114;2023-11-19T12:38:24;17.30;;;4.30;;
12535;SDS011;6334;48.696;2.114;2023-11-19T12:41:09;12.00;;;3.67;;
12535;SDS011;6334;48.696;2.114;2023-11-19T12:43:24;10.93;;;3.50;;
12535;SDS011;6334;48.696;2.114;2023-11-19T12:45:55;11.47;;;4.10;;
12535;SDS011;6334;48.696;2.114;2023-11-19T12:48:25;11.30;;;3.57;;
12535;SDS011;6334;48.696;2.114;2023-11-19T12:50:57;12.90;;;3.60;;
12535;SDS011;6334;48.696;2.114;2023-11-19T12:53:26;15.00;;;4.17;;
12535;SDS011;6334;48.696;2.114;2023-11-19T12:55:59;10.90;;;3.53;;
12535;SDS011;6334;48.696;2.114;2023-11-19T12:58:33;12.33;;;3.73;;
12535;SDS011;6334;48.696;2.114;2023-11-19T13:01:05;10.97;;;3.87;;
12535;SDS011;6334;48.696;2.114;2023-11-19T13:03:36;13.60;;;3.77;;
12535;SDS011;6334;48.696;2.114;2023-11-19T13:06:06;13.30;;;3.93;;
12535;SDS011;6334;48.696;2.114;2023-11-19T13:08:38;12.67;;;4.40;;
12535;SDS011;6334;48.696;2.114;2023-11-19T13:11:08;14.90;;;4.00;;
12535;SDS011;6334;48.696;2.114;2023-11-19T13:14:00;12.63;;;4.00;;
12535;SDS011;6334;48.696;2.114;2023-11-19T13:16:27;13.37;;;4.30;;
12535;SDS011;6334;48.696;2.114;2023-11-19T13:18:56;14.87;;;4.77;;
12535;SDS011;6334;48.696;2.114;2023-11-19T13:21:26;12.57;;;4.20;;
12535;SDS011;6334;48.696;2.114;2023-11-19T13:23:55;12.57;;;4.20;;
12535;SDS011;6334;48.696;2.114;2023-11-19T13:26:26;13.47;;;4.23;;
12535;SDS011;6334;48.696;2.114;2023-11-19T13:28:58;14.30;;;4.23;;
12535;SDS011;6334;48.696;2.114;2023-11-19T13:31:28;12.00;;;5.10;;
12535;SDS011;6334;48.696;2.114;2023-11-19T13:33:59;16.40;;;4.33;;
12535;SDS011;6334;48.696;2.114;2023-11-19T13:36:29;12.30;;;4.30;;
12535;SDS011;6334;48.696;2.114;2023-11-19T13:39:00;16.17;;;4.50;;
12535;SDS011;6334;48.696;2.114;2023-11-19T13:41:30;13.57;;;4.33;;
12535;SDS011;6334;48.696;2.114;2023-11-19T13:44:00;14.57;;;3.73;;
12535;SDS011;6334;48.696;2.114;2023-11-19T13:46:29;12.37;;;4.00;;
12535;SDS011;6334;48.696;2.114;2023-11-19T13:48:59;15.50;;;4.17;;
12535;SDS011;6334;48.696;2.114;2023-11-19T13:51:30;12.50;;;4.20;;
12535;SDS011;6334;48.696;2.114;2023-11-19T13:54:00;12.67;;;3.47;;
12535;SDS011;6334;48.696;2.114;2023-11-19T13:56:30;14.17;;;4.10;;
12535;SDS011;6334;48.696;2.114;2023-11-19T13:59:00;12.40;;;3.97;;
12535;SDS011;6334;48.696;2.114;2023-11-19T14:01:31;13.37;;;3.63;;
12535;SDS011;6334;48.696;2.114;2023-11-19T14:04:00;13.70;;;3.80;;
12535;SDS011;6334;48.696;2.114;2023-11-19T14:06:31;10.83;;;3.43;;
12535;SDS011;6334;48.696;2.114;2023-11-19T14:09:01;15.70;;;4.30;;
12535;SDS011;6334;48.696;2.114;2023-11-19T14:11:31;11.73;;;4.07;;
12535;SDS011;6334;48.696;2.114;2023-11-19T14:14:01;14.23;;;4.13;;
12535;SDS011;6334;48.696;2.114;2023-11-19T14:16:32;13.90;;;4.23;;
12535;SDS011;6334;48.696;2.114;2023-11-19T14:19:02;10.07;;;3.07;;
12535;SDS011;6334;48.696;2.114;2023-11-19T14:21:32;12.27;;;4.43;;
12535;SDS011;6334;48.696;2.114;2023-11-19T14:24:01;12.33;;;3.60;;
12535;SDS011;6334;48.696;2.114;2023-11-19T14:26:32;12.13;;;3.87;;
12535;SDS011;6334;48.696;2.114;2023-11-19T14:29:02;11.87;;;3.97;;
12535;SDS011;6334;48.696;2.114;2023-11-19T14:31:33;11.97;;;4.27;;
12535;SDS011;6334;48.696;2.114;2023-11-19T14:34:03;21.27;;;8.57;;
12535;SDS011;6334;48.696;2.114;2023-11-19T14:36:34;25.30;;;9.00;;
12535;SDS011;6334;48.696;2.114;2023-11-19T14:39:03;23.00;;;7.90;;
12535;SDS011;6334;48.696;2.114;2023-11-19T14:41:34;20.63;;;8.53;;
12535;SDS011;6334;48.696;2.114;2023-11-19T14:44:04;17.53;;;7.20;;
12535;SDS011;6334;48.696;2.114;2023-11-19T14:46:34;16.50;;;5.93;;
12535;SDS011;6334;48.696;2.114;2023-11-19T14:49:03;13.57;;;5.00;;
12535;SDS011;6334;48.696;2.114;2023-11-19T14:51:39;13.47;;;4.20;;
12535;SDS011;6334;48.696;2.114;2023-11-19T14:54:09;16.57;;;4.87;;
12535;SDS011;6334;48.696;2.114;2023-11-19T14:56:39;9.67;;;3.73;;
12535;SDS011;6334;48.696;2.114;2023-11-19T14:59:10;10.13;;;3.53;;
12535;SDS011;6334;48.696;2.114;2023-11-19T15:01:40;12.47;;;3.80;;
12535;SDS011;6334;48.696;2.114;2023-11-19T15:04:11;12.80;;;4.00;;
12535;SDS011;6334;48.696;2.114;2023-11-19T15:06:41;18.30;;;4.63;;
12535;SDS011;6334;48.696;2.114;2023-11-19T15:09:24;12.62;;;4.28;;
12535;SDS011;6334;48.696;2.114;2023-11-19T15:11:53;17.03;;;4.70;;
12535;SDS011;6334;48.696;2.114;2023-11-19T15:14:24;11.03;;;3.97;;
12535;SDS011;6334;48.696;2.114;2023-11-19T15:16:54;12.17;;;4.00;;
12535;SDS011;6334;48.696;2.114;2023-11-19T15:19:25;11.98;;;3.92;;
12535;SDS011;6334;48.696;2.114;2023-11-19T15:21:54;14.40;;;3.80;;
12535;SDS011;6334;48.696;2.114;2023-11-19T15:24:24;13.23;;;3.67;;
12535;SDS011;6334;48.696;2.114;2023-11-19T15:26:55;15.33;;;4.10;;
12535;SDS011;6334;48.696;2.114;2023-11-19T15:29:27;15.67;;;3.77;;
12535;SDS011;6334;48.696;2.114;2023-11-19T15:31:57;13.50;;;3.93;;
12535;SDS011;6334;48.696;2.114;2023-11-19T15:34:28;13.40;;;4.40;;
12535;SDS011;6334;48.696;2.114;2023-11-19T15:36:58;15.23;;;4.23;;